Time;durP1;ratioP1;P1;durP2;ratioP2;P2;SDS_P1;SDS_P2;PMS_P1;PMS_P2;Temp;Humidity;BMP_temperature;BMP_pressure;BME280_temperature;BME280_humidity;BME280_pressure;Samples;Min_cycle;Max_cycle;Signal;HPM_P1;HPM_P2
2023/10/15 00:02:19;;;;;;;9.52;2.20;;;;;;;;;;4968845;28;20043;-82
2023/10/15 00:04:45;;;;;;;8.25;2.90;;;;;;;;;;4975010;28;20069;-82
2023/10/15 00:07:11;;;;;;;13.18;3.00;;;;;;;;;;4966082;28;20058;-82
2023/10/15 00:09:39;;;;;;;9.68;3.03;;;;;;;;;;4978407;28;20561;-82
2023/10/15 00:12:05;;;;;;;7.45;2.25;;;;;;;;;;4965321;28;20066;-83
2023/10/15 00:14:31;;;;;;;8.23;3.05;;;;;;;;;;4970945;28;20047;-82
2023/10/15 00:16:59;;;;;;;9.05;2.85;;;;;;;;;;4971037;28;20054;-82
2023/10/15 00:19:25;;;;;;;9.23;2.78;;;;;;;;;;4959488;28;20062;-82
2023/10/15 00:21:53;;;;;;;7.07;2.30;;;;;;;;;;4971750;28;20034;-83
2023/10/15 00:24:19;;;;;;;9.40;2.30;;;;;;;;;;4973278;28;20231;-82
2023/10/15 00:26:46;;;;;;;5.82;2.30;;;;;;;;;;4973772;28;20062;-82
2023/10/15 00:29:12;;;;;;;8.85;2.90;;;;;;;;;;4968789;28;22324;-83
2023/10/15 00:31:41;;;;;;;5.93;2.33;;;;;;;;;;4975114;28;20046;-83
2023/10/15 00:34:13;;;;;;;8.40;2.15;;;;;;;;;;4975794;28;20051;-82
2023/10/15 00:36:40;;;;;;;6.57;1.90;;;;;;;;;;4981401;28;20057;-82
2023/10/15 00:39:12;;;;;;;7.15;2.20;;;;;;;;;;4974554;28;20054;-82
2023/10/15 00:41:40;;;;;;;6.53;2.00;;;;;;;;;;4972576;28;20102;-83
2023/10/15 00:44:09;;;;;;;7.55;1.90;;;;;;;;;;4976830;28;20489;-86
2023/10/15 00:46:37;;;;;;;4.00;1.88;;;;;;;;;;4972247;28;20111;-83
2023/10/15 00:49:14;;;;;;;3.22;1.70;;;;;;;;;;4971700;28;20426;-83
2023/10/15 00:51:41;;;;;;;5.78;2.10;;;;;;;;;;4971210;28;20078;-82
2023/10/15 00:54:12;;;;;;;7.13;1.95;;;;;;;;;;4966579;28;20050;-83
2023/10/15 00:56:39;;;;;;;5.63;2.15;;;;;;;;;;4977228;28;20043;-84
2023/10/15 01:01:35;;;;;;;8.52;2.00;;;;;;;;;;4970747;28;20066;-82
2023/10/15 01:04:06;;;;;;;2.38;1.50;;;;;;;;;;4970734;28;20066;-83
2023/10/15 01:06:37;;;;;;;3.50;1.67;;;;;;;;;;4970929;28;20055;-83
2023/10/15 01:09:10;;;;;;;7.40;2.22;;;;;;;;;;4967683;28;20063;-83
2023/10/15 01:11:37;;;;;;;2.38;1.58;;;;;;;;;;4984993;28;20045;-82
2023/10/15 01:14:03;;;;;;;5.30;1.60;;;;;;;;;;4967854;28;20055;-82
2023/10/15 01:16:36;;;;;;;4.95;1.83;;;;;;;;;;4969592;28;20051;-83
2023/10/15 01:22:27;;;;;;;3.83;1.80;;;;;;;;;;4969950;28;20454;-82
2023/10/15 01:24:27;;;;;;;5.53;2.00;;;;;;;;;;4958424;28;20053;-83
2023/10/15 01:26:59;;;;;;;5.78;2.30;;;;;;;;;;4967961;28;20054;-82
2023/10/15 01:29:27;;;;;;;9.27;2.47;;;;;;;;;;4966779;28;20081;-81
2023/10/15 01:31:58;;;;;;;7.70;2.45;;;;;;;;;;4967689;28;20062;-83
2023/10/15 01:34:28;;;;;;;9.43;2.90;;;;;;;;;;4966666;28;20047;-83
2023/10/15 01:36:57;;;;;;;9.27;2.55;;;;;;;;;;4991233;28;20051;-82
2023/10/15 01:39:32;;;;;;;11.93;2.72;;;;;;;;;;4967454;28;20068;-83
2023/10/15 01:42:04;;;;;;;8.20;2.13;;;;;;;;;;4978533;28;20039;-82
2023/10/15 01:44:39;;;;;;;8.45;2.60;;;;;;;;;;4973218;28;20058;-82
2023/10/15 01:49:31;;;;;;;2.90;1.70;;;;;;;;;;4973955;28;20055;-81
2023/10/15 01:52:05;;;;;;;5.55;1.80;;;;;;;;;;4985661;28;20046;-82
2023/10/15 01:54:31;;;;;;;6.38;2.33;;;;;;;;;;4978241;28;20894;-82
2023/10/15 01:56:57;;;;;;;6.75;2.03;;;;;;;;;;4973469;28;20402;-81
2023/10/15 01:59:23;;;;;;;7.15;2.22;;;;;;;;;;4975782;28;20047;-82
2023/10/15 02:01:49;;;;;;;4.63;1.92;;;;;;;;;;4972458;28;20120;-83
2023/10/15 02:04:25;;;;;;;7.63;1.88;;;;;;;;;;4971195;28;20055;-82
2023/10/15 02:06:51;;;;;;;13.32;2.30;;;;;;;;;;4974535;28;20058;-82
2023/10/15 02:09:24;;;;;;;4.53;1.65;;;;;;;;;;4973597;28;20038;-83
2023/10/15 02:11:54;;;;;;;4.97;1.88;;;;;;;;;;4973180;28;20046;-81
2023/10/15 02:14:27;;;;;;;4.40;1.88;;;;;;;;;;4970807;28;20059;-82
2023/10/15 02:16:54;;;;;;;3.88;2.00;;;;;;;;;;4971527;28;20094;-81
2023/10/15 02:19:40;;;;;;;7.72;2.05;;;;;;;;;;4971151;28;20487;-81
2023/10/15 02:22:06;;;;;;;5.30;2.42;;;;;;;;;;4973733;28;20430;-81
2023/10/15 02:24:34;;;;;;;5.13;2.40;;;;;;;;;;4971212;28;20089;-81
2023/10/15 02:27:06;;;;;;;3.78;1.90;;;;;;;;;;4980953;28;20059;-81
2023/10/15 02:29:36;;;;;;;4.18;1.80;;;;;;;;;;4979084;28;20104;-82
2023/10/15 02:32:08;;;;;;;6.57;2.05;;;;;;;;;;4981485;28;20508;-81
2023/10/15 02:34:40;;;;;;;4.50;1.73;;;;;;;;;;4973545;28;20043;-82
2023/10/15 02:37:10;;;;;;;5.80;1.83;;;;;;;;;;4983420;28;20056;-82
2023/10/15 02:39:39;;;;;;;4.72;1.90;;;;;;;;;;4977817;28;20070;-82
2023/10/15 02:42:05;;;;;;;2.83;1.50;;;;;;;;;;4973596;28;20070;-82
2023/10/15 02:44:34;;;;;;;6.72;1.80;;;;;;;;;;4972696;28;20122;-82
2023/10/15 02:47:28;;;;;;;5.22;1.58;;;;;;;;;;4972140;28;20134;-83
2023/10/15 02:49:52;;;;;;;3.65;1.77;;;;;;;;;;4978830;28;20406;-82
2023/10/15 02:52:19;;;;;;;5.25;1.80;;;;;;;;;;4978879;28;20482;-82
2023/10/15 02:54:45;;;;;;;3.63;1.40;;;;;;;;;;4970736;28;20519;-81
2023/10/15 02:57:15;;;;;;;4.93;1.63;;;;;;;;;;4976162;28;20078;-83
2023/10/15 02:59:51;;;;;;;5.82;1.90;;;;;;;;;;4967988;28;20101;-82
2023/10/15 03:02:18;;;;;;;7.18;1.95;;;;;;;;;;4970026;28;20533;-83
2023/10/15 03:04:49;;;;;;;2.90;1.60;;;;;;;;;;4970598;28;20051;-82
2023/10/15 03:07:30;;;;;;;3.67;2.00;;;;;;;;;;4972436;28;20046;-82
2023/10/15 03:09:57;;;;;;;3.28;1.60;;;;;;;;;;4972251;28;20066;-83
2023/10/15 03:12:33;;;;;;;4.10;1.80;;;;;;;;;;4975568;28;20050;-83
2023/10/15 03:15:00;;;;;;;4.88;1.60;;;;;;;;;;4969757;28;20058;-82
2023/10/15 03:17:29;;;;;;;4.45;1.80;;;;;;;;;;4973617;28;20165;-82
2023/10/15 03:20:11;;;;;;;5.93;1.80;;;;;;;;;;4973115;28;20054;-82
2023/10/15 03:22:40;;;;;;;5.63;2.03;;;;;;;;;;4980517;28;20058;-83
2023/10/15 03:25:13;;;;;;;5.10;2.08;;;;;;;;;;4971853;28;20522;-83
2023/10/15 03:27:39;;;;;;;28.55;5.07;;;;;;;;;;4992776;28;20057;-83
2023/10/15 03:30:05;;;;;;;24.10;3.90;;;;;;;;;;4965880;28;20264;-84
2023/10/15 03:32:31;;;;;;;19.38;4.10;;;;;;;;;;4978007;28;20101;-84
2023/10/15 03:35:05;;;;;;;13.98;3.20;;;;;;;;;;4975808;28;20050;-84
2023/10/15 03:37:32;;;;;;;19.15;3.05;;;;;;;;;;4981866;28;20483;-84
2023/10/15 03:39:58;;;;;;;11.32;2.45;;;;;;;;;;4980843;28;20058;-83
2023/10/15 03:42:27;;;;;;;5.93;1.90;;;;;;;;;;4978351;28;20047;-84
2023/10/15 03:44:59;;;;;;;12.00;2.33;;;;;;;;;;4968679;28;20442;-85
2023/10/15 03:47:26;;;;;;;9.60;2.30;;;;;;;;;;4974478;28;21606;-86
2023/10/15 03:49:52;;;;;;;6.20;1.90;;;;;;;;;;4970709;28;20050;-84
2023/10/15 03:52:22;;;;;;;8.90;1.90;;;;;;;;;;4977452;28;20092;-86
2023/10/15 03:54:51;;;;;;;10.52;2.22;;;;;;;;;;4973879;28;20049;-84
2023/10/15 03:57:18;;;;;;;11.10;2.65;;;;;;;;;;4966812;28;20050;-86
2023/10/15 03:59:51;;;;;;;10.70;2.80;;;;;;;;;;4965061;28;20133;-85
2023/10/15 04:02:24;;;;;;;14.43;2.95;;;;;;;;;;4967611;28;20054;-85
2023/10/15 04:05:00;;;;;;;;;;;;;;;;;;4971697;28;20046;-85
2023/10/15 04:07:26;;;;;;;8.57;2.38;;;;;;;;;;4983840;28;19934;-84
2023/10/15 04:09:52;;;;;;;6.63;1.90;;;;;;;;;;4972657;28;20054;-86
2023/10/15 04:12:19;;;;;;;4.85;1.90;;;;;;;;;;4972670;28;20100;-85
2023/10/15 04:14:46;;;;;;;2.90;1.67;;;;;;;;;;4971532;28;20137;-85
2023/10/15 04:17:13;;;;;;;1.90;1.73;;;;;;;;;;4966787;28;20047;-85
2023/10/15 04:19:39;;;;;;;3.50;1.58;;;;;;;;;;4975116;28;20121;-85
2023/10/15 04:22:14;;;;;;;5.03;1.67;;;;;;;;;;4971860;28;20124;-85
2023/10/15 04:24:47;;;;;;;4.28;1.83;;;;;;;;;;4970868;28;20054;-85
2023/10/15 04:27:24;;;;;;;3.92;1.75;;;;;;;;;;4969653;28;20039;-84
2023/10/15 04:29:51;;;;;;;4.22;1.88;;;;;;;;;;4970968;28;20074;-83
2023/10/15 04:32:44;;;;;;;6.43;1.73;;;;;;;;;;4973160;28;20141;-85
2023/10/15 04:35:25;;;;;;;4.18;1.90;;;;;;;;;;4970782;28;20062;-85
2023/10/15 04:37:52;;;;;;;3.97;1.90;;;;;;;;;;4972023;28;20043;-85
2023/10/15 04:40:23;;;;;;;8.27;1.90;;;;;;;;;;4968614;28;20050;-86
2023/10/15 04:42:49;;;;;;;15.38;3.17;;;;;;;;;;4985090;28;20105;-84
2023/10/15 04:45:44;;;;;;;17.65;3.17;;;;;;;;;;4969791;28;20062;-85
2023/10/15 04:48:13;;;;;;;12.25;2.90;;;;;;;;;;5000982;28;20058;-86
2023/10/15 04:50:40;;;;;;;12.60;2.38;;;;;;;;;;4967347;28;20046;-86
2023/10/15 04:53:13;;;;;;;8.02;2.25;;;;;;;;;;4977554;28;20042;-86
2023/10/15 04:55:43;;;;;;;9.40;2.30;;;;;;;;;;4991224;28;20054;-85
2023/10/15 04:58:09;;;;;;;7.65;1.95;;;;;;;;;;4977844;28;20053;-87
2023/10/15 05:00:38;;;;;;;9.07;2.40;;;;;;;;;;4968686;28;20046;-86
2023/10/15 05:03:04;;;;;;;9.90;2.17;;;;;;;;;;4974657;28;20070;-86
2023/10/15 05:05:31;;;;;;;10.65;2.22;;;;;;;;;;4972450;28;20057;-85
2023/10/15 05:08:00;;;;;;;10.38;2.10;;;;;;;;;;4972774;28;20050;-86
2023/10/15 05:10:29;;;;;;;4.05;1.67;;;;;;;;;;4969094;28;22031;-86
2023/10/15 05:12:56;;;;;;;6.70;2.30;;;;;;;;;;4972730;28;20059;-87
2023/10/15 05:15:23;;;;;;;9.45;2.30;;;;;;;;;;4969461;28;20043;-85
2023/10/15 05:17:49;;;;;;;7.60;2.00;;;;;;;;;;4980364;28;20042;-85
2023/10/15 05:20:15;;;;;;;4.38;1.50;;;;;;;;;;4979437;28;20129;-87
2023/10/15 05:22:41;;;;;;;5.57;1.80;;;;;;;;;;4973086;28;20053;-86
2023/10/15 05:25:25;;;;;;;6.68;2.53;;;;;;;;;;4974666;28;20113;-86
2023/10/15 05:27:52;;;;;;;10.55;2.65;;;;;;;;;;4977265;28;20051;-86
2023/10/15 05:30:19;;;;;;;7.05;2.25;;;;;;;;;;4971969;28;20049;-86
2023/10/15 05:32:45;;;;;;;6.57;2.15;;;;;;;;;;4972672;28;20051;-86
2023/10/15 05:35:12;;;;;;;9.73;2.92;;;;;;;;;;4968254;28;20061;-86
2023/10/15 05:37:39;;;;;;;13.23;2.42;;;;;;;;;;4979204;28;20174;-86
2023/10/15 05:40:06;;;;;;;4.72;1.80;;;;;;;;;;4976949;28;20069;-87
2023/10/15 05:42:32;;;;;;;3.80;1.60;;;;;;;;;;4983835;28;21016;-86
2023/10/15 05:44:58;;;;;;;4.13;1.98;;;;;;;;;;4970295;28;20042;-86
2023/10/15 05:47:24;;;;;;;7.45;2.50;;;;;;;;;;4973283;28;20078;-86
2023/10/15 05:49:50;;;;;;;8.02;2.30;;;;;;;;;;4975673;28;20049;-87
2023/10/15 05:52:16;;;;;;;6.32;2.17;;;;;;;;;;4971044;28;20050;-86
2023/10/15 05:54:42;;;;;;;4.28;1.75;;;;;;;;;;4966425;28;20133;-86
2023/10/15 05:57:10;;;;;;;9.43;1.83;;;;;;;;;;5003841;28;20125;-88
2023/10/15 05:59:36;;;;;;;5.35;2.30;;;;;;;;;;4972691;28;20105;-86
2023/10/15 06:02:04;;;;;;;5.32;2.10;;;;;;;;;;4972114;28;20039;-86
2023/10/15 06:04:30;;;;;;;11.63;3.00;;;;;;;;;;4978523;28;20062;-85
2023/10/15 06:06:57;;;;;;;11.68;2.30;;;;;;;;;;4973246;28;20509;-86
2023/10/15 06:09:23;;;;;;;12.95;2.70;;;;;;;;;;4978606;28;20050;-87
2023/10/15 06:11:50;;;;;;;8.45;2.30;;;;;;;;;;4974248;28;20053;-85
2023/10/15 06:14:16;;;;;;;8.95;2.30;;;;;;;;;;4960211;28;20065;-87
2023/10/15 06:16:44;;;;;;;4.32;1.70;;;;;;;;;;4961785;28;20050;-87
2023/10/15 06:19:10;;;;;;;4.88;1.90;;;;;;;;;;4962112;28;20410;-86
2023/10/15 06:21:36;;;;;;;6.65;1.70;;;;;;;;;;4971021;28;20483;-85
2023/10/15 06:24:02;;;;;;;8.00;2.70;;;;;;;;;;4959491;28;20622;-85
2023/10/15 06:26:28;;;;;;;4.22;1.70;;;;;;;;;;4968551;28;20105;-84
2023/10/15 06:28:54;;;;;;;5.38;2.03;;;;;;;;;;4972088;28;20515;-84
2023/10/15 06:31:20;;;;;;;5.55;1.92;;;;;;;;;;4970561;28;20122;-83
2023/10/15 06:33:47;;;;;;;7.38;2.05;;;;;;;;;;4970237;28;20134;-84
2023/10/15 06:36:14;;;;;;;8.00;2.63;;;;;;;;;;4974003;28;20053;-85
2023/10/15 06:38:40;;;;;;;7.20;1.90;;;;;;;;;;4971777;28;20038;-84
2023/10/15 06:41:09;;;;;;;5.75;2.25;;;;;;;;;;4978002;28;20046;-84
2023/10/15 06:43:36;;;;;;;4.65;1.90;;;;;;;;;;4972322;28;20130;-85
2023/10/15 06:46:07;;;;;;;6.50;2.28;;;;;;;;;;4969744;28;20133;-84
2023/10/15 06:48:33;;;;;;;9.25;2.38;;;;;;;;;;4980284;28;20067;-83
2023/10/15 06:51:04;;;;;;;6.22;3.00;;;;;;;;;;4982535;28;20152;-84
2023/10/15 06:53:30;;;;;;;4.78;2.58;;;;;;;;;;4964436;28;20170;-83
2023/10/15 06:55:56;;;;;;;4.05;1.80;;;;;;;;;;4952079;28;20054;-84
2023/10/15 06:58:22;;;;;;;6.18;2.10;;;;;;;;;;4960348;28;20043;-84
2023/10/15 07:00:48;;;;;;;14.10;2.60;;;;;;;;;;4950796;28;20552;-83
2023/10/15 07:03:15;;;;;;;7.05;2.60;;;;;;;;;;4951693;28;20499;-83
2023/10/15 07:05:42;;;;;;;3.83;1.67;;;;;;;;;;4951808;28;20145;-82
2023/10/15 07:08:08;;;;;;;1.77;1.40;;;;;;;;;;4951793;28;20039;-82
2023/10/15 07:10:36;;;;;;;2.70;1.48;;;;;;;;;;4954830;28;20050;-83
2023/10/15 07:13:03;;;;;;;8.10;1.80;;;;;;;;;;4953210;28;20058;-83
2023/10/15 07:15:29;;;;;;;3.38;1.85;;;;;;;;;;4951530;28;20043;-83
2023/10/15 07:17:55;;;;;;;4.43;1.98;;;;;;;;;;4959576;28;20392;-83
2023/10/15 07:20:24;;;;;;;6.47;2.00;;;;;;;;;;4982934;28;20058;-83
2023/10/15 07:22:51;;;;;;;7.82;2.17;;;;;;;;;;4975089;28;20411;-82
2023/10/15 07:25:20;;;;;;;8.50;2.20;;;;;;;;;;4973817;28;20050;-81
2023/10/15 07:27:48;;;;;;;7.93;2.83;;;;;;;;;;4960136;28;20903;-82
2023/10/15 07:30:15;;;;;;;6.35;2.15;;;;;;;;;;4977032;28;20057;-83
2023/10/15 07:32:41;;;;;;;7.85;1.92;;;;;;;;;;4977481;28;20055;-83
2023/10/15 07:35:11;;;;;;;8.38;2.22;;;;;;;;;;4966812;28;20046;-82
2023/10/15 07:37:44;;;;;;;20.90;2.72;;;;;;;;;;4965746;28;20126;-83
2023/10/15 07:40:17;;;;;;;8.18;2.17;;;;;;;;;;4963108;28;20051;-83
2023/10/15 07:42:44;;;;;;;8.43;2.75;;;;;;;;;;4963753;28;20046;-83
2023/10/15 07:45:10;;;;;;;6.07;2.15;;;;;;;;;;4953966;28;20050;-84
2023/10/15 07:47:37;;;;;;;10.77;2.25;;;;;;;;;;4987564;28;20043;-82
2023/10/15 07:50:04;;;;;;;6.53;2.10;;;;;;;;;;4974479;28;20070;-82
2023/10/15 07:52:30;;;;;;;6.22;2.10;;;;;;;;;;4969100;28;20047;-82
2023/10/15 07:54:56;;;;;;;8.68;2.83;;;;;;;;;;4972660;28;20498;-83
2023/10/15 07:57:22;;;;;;;5.90;2.08;;;;;;;;;;4969937;28;20038;-83
2023/10/15 07:59:48;;;;;;;5.43;2.22;;;;;;;;;;4970940;28;20130;-83
2023/10/15 08:02:15;;;;;;;7.65;2.45;;;;;;;;;;4975611;28;20081;-82
2023/10/15 08:04:42;;;;;;;9.57;2.90;;;;;;;;;;4967745;28;20050;-84
2023/10/15 08:07:08;;;;;;;8.23;2.42;;;;;;;;;;4972573;28;20528;-86
2023/10/15 08:09:34;;;;;;;9.15;2.80;;;;;;;;;;4967276;28;20062;-84
2023/10/15 08:12:00;;;;;;;11.77;2.78;;;;;;;;;;4973604;28;20034;-88
2023/10/15 08:14:26;;;;;;;7.78;2.60;;;;;;;;;;4964226;28;20051;-80
2023/10/15 08:16:53;;;;;;;11.32;2.78;;;;;;;;;;4969941;28;20459;-79
2023/10/15 08:19:20;;;;;;;12.23;2.70;;;;;;;;;;4966934;28;20055;-78
2023/10/15 08:21:46;;;;;;;8.15;3.50;;;;;;;;;;4970984;28;20050;-78
2023/10/15 08:24:15;;;;;;;12.13;2.83;;;;;;;;;;4967563;28;20526;-76
2023/10/15 08:26:41;;;;;;;7.82;2.20;;;;;;;;;;4968237;28;20086;-78
2023/10/15 08:29:09;;;;;;;12.15;2.40;;;;;;;;;;4972358;28;20058;-83
2023/10/15 08:31:36;;;;;;;6.55;2.95;;;;;;;;;;4968023;28;20438;-86
2023/10/15 08:34:02;;;;;;;8.10;2.63;;;;;;;;;;4970263;28;20070;-82
2023/10/15 08:36:28;;;;;;;12.30;2.53;;;;;;;;;;4970134;28;20101;-80
2023/10/15 08:38:54;;;;;;;10.68;2.65;;;;;;;;;;4976706;28;20483;-80
2023/10/15 08:41:25;;;;;;;10.95;2.80;;;;;;;;;;4977720;28;20049;-85
2023/10/15 08:43:52;;;;;;;10.15;2.85;;;;;;;;;;4970484;28;20074;-80
2023/10/15 08:46:25;;;;;;;8.63;2.65;;;;;;;;;;4965409;28;20149;-82
2023/10/15 08:48:51;;;;;;;5.78;2.35;;;;;;;;;;5000354;28;20043;-81
2023/10/15 08:51:21;;;;;;;9.73;3.13;;;;;;;;;;4964612;28;20114;-85
2023/10/15 08:53:50;;;;;;;8.68;2.67;;;;;;;;;;4972587;28;20447;-82
2023/10/15 08:56:25;;;;;;;10.00;2.17;;;;;;;;;;4969561;28;20097;-84
2023/10/15 08:58:54;;;;;;;7.55;2.22;;;;;;;;;;4986507;28;20054;-83
2023/10/15 09:01:23;;;;;;;9.25;2.33;;;;;;;;;;4974634;28;20047;-82
2023/10/15 09:03:53;;;;;;;7.45;2.40;;;;;;;;;;4971264;28;20046;-83
2023/10/15 09:06:20;;;;;;;5.50;2.78;;;;;;;;;;4975152;28;20158;-81
2023/10/15 09:08:51;;;;;;;7.55;2.58;;;;;;;;;;4973919;28;20040;-81
2023/10/15 09:11:20;;;;;;;4.65;1.80;;;;;;;;;;4985583;28;20047;-82
2023/10/15 09:13:50;;;;;;;10.25;2.20;;;;;;;;;;4969660;28;20051;-82
2023/10/15 09:16:32;;;;;;;11.95;2.85;;;;;;;;;;4966878;28;20046;-81
2023/10/15 09:19:06;;;;;;;6.60;2.85;;;;;;;;;;4972845;28;20407;-81
2023/10/15 09:21:36;;;;;;;7.72;2.25;;;;;;;;;;4972362;28;20065;-82
2023/10/15 09:24:04;;;;;;;8.00;2.58;;;;;;;;;;4980093;28;20055;-82
2023/10/15 09:26:31;;;;;;;6.60;2.25;;;;;;;;;;4968629;28;20050;-82
2023/10/15 09:28:57;;;;;;;8.50;2.40;;;;;;;;;;4956192;28;20057;-82
2023/10/15 09:31:42;;;;;;;7.20;2.25;;;;;;;;;;4967860;28;20049;-81
2023/10/15 09:34:11;;;;;;;8.70;2.72;;;;;;;;;;4971753;28;20051;-81
2023/10/15 09:36:38;;;;;;;9.07;2.80;;;;;;;;;;4973206;28;20043;-81
2023/10/15 09:39:13;;;;;;;11.52;2.75;;;;;;;;;;4981194;28;20076;-81
2023/10/15 09:41:42;;;;;;;8.95;2.50;;;;;;;;;;5001265;28;20038;-81
2023/10/15 09:44:19;;;;;;;9.93;2.30;;;;;;;;;;4998481;28;20042;-81
2023/10/15 09:46:46;;;;;;;4.03;1.85;;;;;;;;;;4972024;28;20047;-82
2023/10/15 09:49:15;;;;;;;3.63;1.90;;;;;;;;;;4980031;28;20058;-82
2023/10/15 09:51:51;;;;;;;6.57;2.38;;;;;;;;;;4987209;28;20132;-81
2023/10/15 09:54:20;;;;;;;6.50;2.42;;;;;;;;;;4956514;28;20051;-81
2023/10/15 09:56:55;;;;;;;12.70;2.50;;;;;;;;;;4962465;28;20054;-81
2023/10/15 09:59:32;;;;;;;5.13;1.70;;;;;;;;;;4978903;28;20081;-81
2023/10/15 10:02:06;;;;;;;9.32;2.25;;;;;;;;;;4974720;28;20042;-81
2023/10/15 10:04:44;;;;;;;3.95;1.98;;;;;;;;;;4970775;28;20070;-81
2023/10/15 10:07:13;;;;;;;7.85;2.08;;;;;;;;;;4982530;28;20540;-81
2023/10/15 10:09:58;;;;;;;6.82;2.05;;;;;;;;;;4972350;28;20184;-81
2023/10/15 10:12:30;;;;;;;4.32;1.85;;;;;;;;;;5004091;28;20051;-81
2023/10/15 10:15:22;;;;;;;5.70;2.00;;;;;;;;;;4975314;28;20062;-82
2023/10/15 10:17:53;;;;;;;6.32;1.83;;;;;;;;;;5003322;28;20174;-81
2023/10/15 10:20:33;;;;;;;8.03;2.23;;;;;;;;;;4971499;28;20051;-81
2023/10/15 10:23:08;;;;;;;;;;;;;;;;;;4940726;28;20058;-81
2023/10/15 10:25:39;;;;;;;7.45;1.90;;;;;;;;;;4954940;28;19933;-81
2023/10/15 10:28:13;;;;;;;6.63;2.13;;;;;;;;;;4957140;28;20054;-82
2023/10/15 10:30:52;;;;;;;4.30;1.80;;;;;;;;;;4955246;28;20315;-81
2023/10/15 10:33:44;;;;;;;2.85;1.45;;;;;;;;;;4949839;28;20126;-81
2023/10/15 10:36:27;;;;;;;4.93;2.08;;;;;;;;;;4968340;28;20090;-81
2023/10/15 10:39:11;;;;;;;5.55;2.00;;;;;;;;;;4951478;28;20134;-85
2023/10/15 10:41:37;;;;;;;;;;;;;;;;;;4955256;28;20055;-80
2023/10/15 10:44:04;;;;;;;7.97;2.20;;;;;;;;;;4953201;28;19929;-80
2023/10/15 10:46:30;;;;;;;6.70;2.05;;;;;;;;;;4950978;28;20062;-80
2023/10/15 10:49:04;;;;;;;5.35;1.90;;;;;;;;;;4972314;28;20042;-80
2023/10/15 10:51:36;;;;;;;13.10;1.95;;;;;;;;;;4960652;28;20387;-81
2023/10/15 10:54:05;;;;;;;6.20;1.92;;;;;;;;;;4973281;28;20046;-81
2023/10/15 10:56:40;;;;;;;2.88;1.98;;;;;;;;;;4967055;28;20051;-81
2023/10/15 10:59:06;;;;;;;7.45;2.38;;;;;;;;;;4976192;28;20097;-82
2023/10/15 11:01:50;;;;;;;3.33;1.80;;;;;;;;;;4972650;28;20046;-81
2023/10/15 11:04:16;;;;;;;7.22;2.10;;;;;;;;;;4964949;28;20043;-81
2023/10/15 11:06:45;;;;;;;4.50;2.00;;;;;;;;;;4973439;28;20486;-82
2023/10/15 11:09:15;;;;;;;7.88;2.25;;;;;;;;;;4971542;28;20106;-81
2023/10/15 11:11:48;;;;;;;9.18;2.45;;;;;;;;;;4965028;28;20049;-82
2023/10/15 11:14:14;;;;;;;;;;;;;;;;;;4968177;28;20051;-80
2023/10/15 11:16:42;;;;;;;5.75;2.00;;;;;;;;;;4964561;28;19996;-81
2023/10/15 11:19:14;;;;;;;9.23;2.20;;;;;;;;;;4974065;28;20054;-83
2023/10/15 11:21:40;;;;;;;6.55;2.25;;;;;;;;;;4969957;28;20057;-77
2023/10/15 11:24:09;;;;;;;9.00;2.42;;;;;;;;;;4968459;28;20046;-81
2023/10/15 11:26:42;;;;;;;8.05;2.30;;;;;;;;;;4973694;28;20142;-84
2023/10/15 11:29:18;;;;;;;5.55;1.90;;;;;;;;;;4964192;28;20439;-84
2023/10/15 11:31:58;;;;;;;4.95;1.98;;;;;;;;;;4979219;28;20129;-85
2023/10/15 11:34:31;;;;;;;5.40;2.10;;;;;;;;;;4958502;28;20055;-84
2023/10/15 11:37:01;;;;;;;4.07;1.80;;;;;;;;;;4961742;28;20055;-85
2023/10/15 11:39:42;;;;;;;4.32;1.95;;;;;;;;;;4968326;28;20079;-83
2023/10/15 11:42:10;;;;;;;7.93;2.10;;;;;;;;;;4996672;28;20050;-84
2023/10/15 11:44:45;;;;;;;7.32;2.08;;;;;;;;;;4963573;28;20105;-85
2023/10/15 11:47:24;;;;;;;7.15;2.45;;;;;;;;;;4985890;28;20046;-85
2023/10/15 11:49:59;;;;;;;8.98;1.98;;;;;;;;;;4960918;28;20078;-85
2023/10/15 11:52:25;;;;;;;6.47;2.15;;;;;;;;;;4996894;28;20490;-85
2023/10/15 11:54:51;;;;;;;7.60;2.10;;;;;;;;;;4969170;28;20043;-85
2023/10/15 11:57:24;;;;;;;9.45;2.05;;;;;;;;;;4968747;28;20066;-84
2023/10/15 11:59:52;;;;;;;8.05;2.30;;;;;;;;;;4985557;28;20054;-85
2023/10/15 12:02:18;;;;;;;7.00;2.22;;;;;;;;;;4970702;28;20054;-84
2023/10/15 12:04:51;;;;;;;6.18;2.28;;;;;;;;;;4964731;28;20055;-84
2023/10/15 12:07:28;;;;;;;4.78;1.88;;;;;;;;;;4965440;28;21226;-84
2023/10/15 12:09:54;;;;;;;7.97;2.10;;;;;;;;;;4964160;28;20046;-82
2023/10/15 12:12:20;;;;;;;6.05;2.35;;;;;;;;;;4968256;28;20081;-83
2023/10/15 12:14:47;;;;;;;5.75;1.80;;;;;;;;;;4970785;28;20057;-82
2023/10/15 12:17:18;;;;;;;8.18;2.30;;;;;;;;;;4975689;28;20086;-84
2023/10/15 12:19:47;;;;;;;6.20;2.03;;;;;;;;;;4971534;28;20092;-83
2023/10/15 12:22:16;;;;;;;3.42;1.70;;;;;;;;;;4976863;28;20055;-82
2023/10/15 12:24:45;;;;;;;3.70;1.50;;;;;;;;;;4976720;28;20154;-81
2023/10/15 12:27:11;;;;;;;5.00;1.55;;;;;;;;;;4966550;28;20745;-84
2023/10/15 12:29:47;;;;;;;5.65;1.73;;;;;;;;;;4974315;28;20113;-84
2023/10/15 12:32:13;;;;;;;4.40;2.03;;;;;;;;;;4977746;28;20459;-84
2023/10/15 12:34:39;;;;;;;7.43;1.98;;;;;;;;;;4967135;28;20104;-82
2023/10/15 12:37:07;;;;;;;6.88;2.30;;;;;;;;;;4966010;28;20369;-86
2023/10/15 12:39:34;;;;;;;7.75;1.90;;;;;;;;;;4999977;28;20538;-81
2023/10/15 12:42:05;;;;;;;5.90;1.90;;;;;;;;;;4971390;28;20403;-86
2023/10/15 12:44:36;;;;;;;7.82;2.05;;;;;;;;;;4970297;28;20065;-84
2023/10/15 12:47:03;;;;;;;5.28;1.92;;;;;;;;;;4967583;28;20061;-86
2023/10/15 12:49:29;;;;;;;5.88;1.80;;;;;;;;;;4971397;28;20290;-84
2023/10/15 12:51:58;;;;;;;4.65;1.77;;;;;;;;;;4957672;28;20545;-86
2023/10/15 12:54:25;;;;;;;3.33;1.55;;;;;;;;;;4965895;28;20046;-83
2023/10/15 12:56:51;;;;;;;3.55;2.03;;;;;;;;;;4963877;28;20047;-85
2023/10/15 12:59:17;;;;;;;2.60;1.65;;;;;;;;;;4964598;28;20050;-87
2023/10/15 13:01:50;;;;;;;5.38;2.25;;;;;;;;;;4968730;28;20061;-88
2023/10/15 13:04:21;;;;;;;4.05;2.17;;;;;;;;;;4967995;28;20061;-86
2023/10/15 13:06:49;;;;;;;4.18;2.00;;;;;;;;;;4968524;28;20050;-85
2023/10/15 13:09:25;;;;;;;3.60;1.90;;;;;;;;;;4968024;28;20086;-84
2023/10/15 13:11:53;;;;;;;6.53;2.30;;;;;;;;;;4972168;28;20082;-84
2023/10/15 13:14:25;;;;;;;8.43;1.70;;;;;;;;;;4964937;28;20957;-87
2023/10/15 13:16:54;;;;;;;5.93;2.03;;;;;;;;;;4967807;28;20497;-85
2023/10/15 13:19:20;;;;;;;4.07;1.70;;;;;;;;;;4966954;28;20051;-81
2023/10/15 13:21:46;;;;;;;5.78;2.20;;;;;;;;;;4970301;28;20053;-81
2023/10/15 13:24:12;;;;;;;5.50;2.30;;;;;;;;;;4967091;28;20070;-82
2023/10/15 13:26:39;;;;;;;6.25;2.00;;;;;;;;;;4966368;28;20046;-79
2023/10/15 13:29:06;;;;;;;5.05;2.00;;;;;;;;;;4966204;28;20059;-80
2023/10/15 13:31:32;;;;;;;6.18;2.00;;;;;;;;;;4998153;28;20604;-83
2023/10/15 13:33:59;;;;;;;8.80;2.10;;;;;;;;;;4969345;28;20062;-84
2023/10/15 13:36:30;;;;;;;7.90;2.15;;;;;;;;;;4964201;28;20413;-86
2023/10/15 13:38:56;;;;;;;7.72;2.15;;;;;;;;;;4967687;28;20574;-82
2023/10/15 13:41:24;;;;;;;5.40;2.55;;;;;;;;;;4952916;28;20146;-77
2023/10/15 13:43:50;;;;;;;6.45;2.17;;;;;;;;;;4969634;28;20126;-79
2023/10/15 13:46:16;;;;;;;6.95;2.08;;;;;;;;;;4964649;28;20170;-85
2023/10/15 13:48:44;;;;;;;5.60;1.88;;;;;;;;;;4968342;28;20546;-83
2023/10/15 13:51:11;;;;;;;4.65;2.05;;;;;;;;;;4954907;28;20407;-83
2023/10/15 13:53:37;;;;;;;5.88;1.75;;;;;;;;;;4971968;28;20078;-82
2023/10/15 13:56:03;;;;;;;3.47;1.88;;;;;;;;;;4970566;28;20055;-82
2023/10/15 13:58:29;;;;;;;3.92;2.00;;;;;;;;;;4973954;28;20507;-83
2023/10/15 14:00:56;;;;;;;5.50;2.10;;;;;;;;;;4965423;28;20061;-82
2023/10/15 14:03:22;;;;;;;4.40;2.17;;;;;;;;;;4974785;28;20053;-84
2023/10/15 14:05:48;;;;;;;5.13;2.30;;;;;;;;;;4970938;28;20050;-86
2023/10/15 14:08:14;;;;;;;10.25;2.35;;;;;;;;;;4973536;28;20051;-86
2023/10/15 14:10:40;;;;;;;9.00;2.30;;;;;;;;;;4974508;28;20038;-86
2023/10/15 14:13:06;;;;;;;5.32;2.13;;;;;;;;;;4972345;28;20138;-85
2023/10/15 14:15:33;;;;;;;3.22;1.90;;;;;;;;;;4977546;28;20206;-86
2023/10/15 14:17:59;;;;;;;4.65;2.40;;;;;;;;;;4973039;28;20050;-85
2023/10/15 14:20:25;;;;;;;4.80;2.25;;;;;;;;;;4972652;28;20089;-86
2023/10/15 14:22:54;;;;;;;7.32;2.53;;;;;;;;;;4972363;28;20502;-87
2023/10/15 14:25:20;;;;;;;5.15;1.92;;;;;;;;;;4969497;28;20047;-87
2023/10/15 14:27:47;;;;;;;7.22;2.05;;;;;;;;;;4971541;28;20046;-87
2023/10/15 14:30:13;;;;;;;6.85;2.08;;;;;;;;;;4971160;28;20083;-87
2023/10/15 14:32:39;;;;;;;6.90;2.40;;;;;;;;;;4971773;28;20062;-78
2023/10/15 14:35:09;;;;;;;5.80;2.70;;;;;;;;;;4972965;28;20054;-82
2023/10/15 14:37:35;;;;;;;7.75;3.10;;;;;;;;;;4975310;28;20050;-82
2023/10/15 14:40:03;;;;;;;8.10;2.35;;;;;;;;;;4975119;28;20043;-81
2023/10/15 14:42:29;;;;;;;4.80;1.80;;;;;;;;;;4968970;28;21207;-82
2023/10/15 14:44:55;;;;;;;4.22;1.40;;;;;;;;;;4972077;28;20184;-82
2023/10/15 14:47:21;;;;;;;4.38;1.67;;;;;;;;;;4971456;28;20125;-83
2023/10/15 14:49:47;;;;;;;7.32;2.30;;;;;;;;;;4967241;28;20046;-82
2023/10/15 14:52:13;;;;;;;7.93;2.20;;;;;;;;;;4970505;28;20384;-82
2023/10/15 14:54:39;;;;;;;4.97;2.20;;;;;;;;;;4970599;28;20042;-82
2023/10/15 14:57:10;;;;;;;5.00;2.30;;;;;;;;;;4969784;28;20125;-82
2023/10/15 14:59:36;;;;;;;4.78;2.10;;;;;;;;;;4969687;28;20415;-82
2023/10/15 15:02:03;;;;;;;6.85;2.15;;;;;;;;;;4967174;28;20046;-82
2023/10/15 15:04:30;;;;;;;6.30;1.90;;;;;;;;;;4967791;28;20064;-82